Time;durP1;ratioP1;P1;durP2;ratioP2;P2;SDS_P1;SDS_P2;PMS_P1;PMS_P2;Temp;Humidity;BMP_temperature;BMP_pressure;BME280_temperature;BME280_humidity;BME280_pressure;Samples;Min_cycle;Max_cycle;Signal;HPM_P1;HPM_P2
2022/07/06 00:00:34;;;;;;;;;3.00;3.00;;;;;18.54;51.06;102015.09;5073341;27;45989;-63
2022/07/06 00:02:59;;;;;;;;;2.00;2.00;;;;;18.48;51.29;102010.97;5075200;27;45647;-63
2022/07/06 00:05:25;;;;;;;;;1.00;1.00;;;;;18.48;51.10;102004.72;5076781;27;46140;-63
2022/07/06 00:07:51;;;;;;;;;2.00;2.00;;;;;18.52;51.07;102023.28;5075752;27;45418;-63
2022/07/06 00:10:16;;;;;;;;;3.00;3.00;;;;;18.40;51.40;102012.44;5076513;27;45373;-64
2022/07/06 00:12:42;;;;;;;;;4.00;3.00;;;;;18.44;51.90;102024.75;5076642;27;45502;-67
2022/07/06 00:15:07;;;;;;;;;2.33;2.33;;;;;18.38;51.82;102025.16;5076380;27;46375;-64
2022/07/06 00:17:33;;;;;;;;;2.00;2.00;;;;;18.40;51.90;102028.63;5071093;27;45504;-65
2022/07/06 00:19:58;;;;;;;;;4.00;3.00;;;;;18.40;52.12;102016.00;5073769;27;46945;-65
2022/07/06 00:22:24;;;;;;;;;3.33;3.00;;;;;18.40;52.06;102024.09;5078749;27;46766;-66
2022/07/06 00:24:49;;;;;;;;;5.00;3.33;;;;;18.35;52.61;102015.44;5076210;27;45441;-65
2022/07/06 00:27:15;;;;;;;;;5.00;3.00;;;;;18.31;52.20;102007.66;5077263;27;45404;-64
2022/07/06 00:29:43;;;;;;;;;4.00;4.00;;;;;18.33;52.93;102019.19;5075306;27;45866;-63
2022/07/06 00:32:10;;;;;;;;;3.67;3.67;;;;;18.32;52.48;102020.16;5075602;27;45465;-61
2022/07/06 00:34:35;;;;;;;;;4.00;4.00;;;;;18.26;52.73;102016.94;5062241;27;45247;-63
2022/07/06 00:37:00;;;;;;;;;3.00;3.00;;;;;18.27;52.94;102028.56;5068506;27;45401;-62
2022/07/06 00:39:28;;;;;;;;;2.67;2.67;;;;;18.15;53.83;102015.91;5063358;27;45366;-64
2022/07/06 00:41:55;;;;;;;;;3.00;3.00;;;;;18.11;53.67;102017.94;5077198;27;45448;-66
2022/07/06 00:44:20;;;;;;;;;3.33;3.33;;;;;18.09;53.07;102025.22;5082036;27;46182;-64
2022/07/06 00:46:46;;;;;;;;;3.00;3.00;;;;;18.11;53.10;102023.31;5082566;27;45299;-64
2022/07/06 00:50:13;;;;;;;;;4.00;4.00;;;;;18.14;53.44;102017.72;5082317;27;45535;-62
2022/07/06 00:51:58;;;;;;;;;2.67;2.67;;;;;18.17;53.49;102022.91;5071571;27;45349;-61
2022/07/06 00:54:23;;;;;;;;;3.33;3.33;;;;;18.10;52.97;102010.81;5078456;27;46981;-64
2022/07/06 00:56:49;;;;;;;;;3.67;3.00;;;;;18.11;53.54;102011.69;5071068;27;45318;-64
2022/07/06 00:59:14;;;;;;;;;3.00;3.00;;;;;18.10;53.34;102016.22;5087201;27;45397;-64
2022/07/06 01:01:40;;;;;;;;;2.67;2.00;;;;;18.12;53.25;102019.66;5082506;27;45279;-60
2022/07/06 01:04:05;;;;;;;;;3.00;3.00;;;;;18.17;53.30;102022.91;5082576;27;46836;-64
2022/07/06 01:06:30;;;;;;;;;3.67;2.67;;;;;18.15;53.09;102014.06;5071075;27;45523;-68
2022/07/06 01:08:56;;;;;;;;;3.00;3.00;;;;;18.22;53.15;102026.16;5081299;27;45833;-63
2022/07/06 01:11:22;;;;;;;;;4.33;4.00;;;;;18.23;52.70;102014.44;5082262;27;45379;-64
2022/07/06 01:13:49;;;;;;;;;3.00;3.00;;;;;18.25;52.83;102017.03;5081931;27;46186;-68
2022/07/06 01:16:15;;;;;;;;;3.33;3.33;;;;;18.23;53.52;102022.53;5051749;27;45362;-67
2022/07/06 01:18:41;;;;;;;;;5.00;3.00;;;;;18.09;53.21;102014.44;5084546;27;45504;-65
2022/07/06 01:21:08;;;;;;;;;3.00;3.00;;;;;18.21;52.97;102032.50;5084897;27;45487;-67
2022/07/06 01:23:42;;;;;;;;;3.00;2.00;;;;;18.15;53.43;102034.75;5076958;27;45389;-61
2022/07/06 01:26:19;;;;;;;;;3.00;3.00;;;;;18.12;53.33;102037.66;5082929;27;45223;-63
2022/07/06 01:28:45;;;;;;;;;3.67;3.00;;;;;18.06;53.60;102033.50;5080798;27;46942;-63
2022/07/06 01:31:25;;;;;;;;;6.00;4.33;;;;;18.04;53.89;102032.75;5082456;27;45378;-59
2022/07/06 01:33:53;;;;;;;;;4.00;4.00;;;;;18.00;53.68;102031.22;5080591;28;46338;-63
2022/07/06 01:36:19;;;;;;;;;3.00;3.00;;;;;17.98;54.22;102020.56;5082227;28;45837;-67
2022/07/06 01:38:58;;;;;;;;;4.33;4.33;;;;;17.94;54.26;102028.91;5074956;28;45327;-66
2022/07/06 01:41:23;;;;;;;;;3.00;3.00;;;;;17.89;54.68;102022.97;5081155;27;45649;-67
2022/07/06 01:43:49;;;;;;;;;2.33;2.33;;;;;17.86;54.44;102023.16;5082128;27;45460;-65
2022/07/06 01:46:14;;;;;;;;;3.33;3.33;;;;;17.79;54.79;102016.44;5079839;27;45527;-67
2022/07/06 01:48:40;;;;;;;;;4.00;4.00;;;;;17.82;54.31;102029.69;5082321;27;45361;-63
2022/07/06 01:51:06;;;;;;;;;4.00;4.00;;;;;17.80;54.56;102028.91;5082681;27;45507;-64
2022/07/06 01:53:32;;;;;;;;;3.00;3.00;;;;;17.75;54.45;102028.38;5081595;28;45251;-68
2022/07/06 01:55:57;;;;;;;;;4.33;4.33;;;;;17.79;54.49;102027.19;5076550;27;45323;-66
2022/07/06 01:58:23;;;;;;;;;2.00;2.00;;;;;17.85;54.12;102029.50;5078419;27;45401;-68
2022/07/06 02:00:48;;;;;;;;;3.00;3.00;;;;;17.86;54.25;102023.16;5081860;27;45524;-62
2022/07/06 02:03:14;;;;;;;;;2.67;1.00;;;;;17.86;55.10;102023.16;5090541;27;45465;-65
2022/07/06 02:05:39;;;;;;;;;7.00;5.00;;;;;17.79;55.02;102016.44;5079296;27;45355;-67
2022/07/06 02:08:05;;;;;;;;;5.00;4.00;;;;;17.73;55.34;102014.16;5078620;27;45242;-64
2022/07/06 02:10:30;;;;;;;;;5.00;5.00;;;;;17.65;55.86;102014.59;5079968;27;45195;-62
2022/07/06 02:12:55;;;;;;;;;2.33;2.33;;;;;17.75;54.63;102025.66;5079381;27;45269;-66
2022/07/06 02:15:21;;;;;;;;;4.67;4.67;;;;;17.76;54.75;102025.56;5071714;27;47005;-61
2022/07/06 02:17:46;;;;;;;;;4.67;4.67;;;;;17.80;54.67;102008.25;5069797;27;45523;-60
2022/07/06 02:20:11;;;;;;;;;5.67;4.00;;;;;17.81;55.04;102011.81;5066488;27;45528;-62
2022/07/06 02:22:37;;;;;;;;;4.33;4.33;;;;;17.69;54.85;102000.88;5077154;27;45460;-66
2022/07/06 02:25:02;;;;;;;;;4.67;4.67;;;;;17.80;54.77;102018.16;5077982;27;45448;-65
2022/07/06 02:27:28;;;;;;;;;3.67;3.67;;;;;17.81;54.66;102014.50;5078441;27;45377;-63
2022/07/06 02:29:53;;;;;;;;;5.33;5.33;;;;;17.79;54.83;102013.75;5078672;27;45338;-67
2022/07/06 02:32:18;;;;;;;;;7.00;5.00;;;;;17.77;55.19;102007.59;5077627;27;46972;-65
2022/07/06 02:34:44;;;;;;;;;5.00;5.00;;;;;17.65;54.56;101988.53;5076702;27;45528;-62
2022/07/06 02:37:10;;;;;;;;;5.00;5.00;;;;;17.73;54.81;101990.78;5078387;27;45449;-64
2022/07/06 02:39:35;;;;;;;;;5.00;5.00;;;;;17.72;54.74;101990.91;5080263;27;45350;-62
2022/07/06 02:42:00;;;;;;;;;3.67;3.67;;;;;17.73;55.58;102000.69;5075873;27;46126;-63
2022/07/06 02:44:26;;;;;;;;;4.33;4.33;;;;;17.65;55.61;101998.44;5078812;27;45385;-66
2022/07/06 02:46:51;;;;;;;;;4.00;4.00;;;;;17.58;55.25;101997.97;5079159;27;45579;-65
2022/07/06 02:49:17;;;;;;;;;9.33;6.00;;;;;17.50;55.31;101989.53;5072635;27;45531;-65
2022/07/06 02:51:42;;;;;;;;;4.33;3.67;;;;;17.61;55.77;102003.16;5077524;27;45582;-65
2022/07/06 02:54:07;;;;;;;;;5.00;5.00;;;;;17.64;55.75;102015.56;5076514;27;45262;-68
2022/07/06 02:56:33;;;;;;;;;6.00;6.00;;;;;17.61;55.30;102016.63;5076770;27;45427;-66
2022/07/06 02:58:58;;;;;;;;;5.33;5.33;;;;;17.58;55.58;102011.44;5079421;27;45573;-67
2022/07/06 03:01:24;;;;;;;;;5.33;4.33;;;;;17.56;55.51;102005.25;5074306;27;45909;-69
2022/07/06 03:03:49;;;;;;;;;6.00;6.00;;;;;17.66;55.28;102017.19;5074065;27;45317;-66
2022/07/06 03:06:14;;;;;;;;;4.33;4.33;;;;;17.68;55.02;102027.84;5072249;27;45488;-66
2022/07/06 03:08:40;;;;;;;;;4.67;4.67;;;;;17.67;55.32;102028.81;5078150;27;45320;-64
2022/07/06 03:11:05;;;;;;;;;6.33;4.67;;;;;17.59;55.90;102023.91;5076274;27;46297;-61
2022/07/06 03:13:31;;;;;;;;;4.67;4.67;;;;;17.48;55.67;102018.34;5077138;27;45308;-69
2022/07/06 03:15:56;;;;;;;;;11.33;6.67;;;;;17.48;56.14;102022.84;5074901;27;45464;-63
2022/07/06 03:18:21;;;;;;;;;10.33;5.00;;;;;17.44;56.26;102019.47;5076509;27;45295;-67
2022/07/06 03:20:47;;;;;;;;;6.00;6.00;;;;;17.41;56.71;102025.06;5077257;27;45409;-67
2022/07/06 03:23:12;;;;;;;;;7.33;7.33;;;;;17.31;56.33;102015.81;5077537;27;45411;-68
2022/07/06 03:25:37;;;;;;;;;6.00;6.00;;;;;17.35;56.18;102033.50;5074482;27;45381;-66
2022/07/06 03:28:03;;;;;;;;;6.00;6.00;;;;;17.28;56.64;102027.63;5078880;27;45527;-65
2022/07/06 03:30:29;;;;;;;;;5.00;5.00;;;;;17.27;56.90;102027.72;5077508;27;46043;-67
2022/07/06 03:32:54;;;;;;;;;7.67;7.67;;;;;17.25;56.72;102026.97;5077023;27;45346;-63
2022/07/06 03:35:19;;;;;;;;;8.00;6.33;;;;;17.23;57.14;102020.81;5076624;27;45465;-66
2022/07/06 03:37:45;;;;;;;;;7.00;5.00;;;;;17.27;56.79;102025.03;5077285;27;45607;-67
2022/07/06 03:40:11;;;;;;;;;8.67;6.00;;;;;17.23;56.86;102019.00;5070769;27;46050;-67
2022/07/06 03:42:37;;;;;;;;;8.00;6.33;;;;;17.35;56.35;102038.88;5072069;27;45426;-69
2022/07/06 03:45:04;;;;;;;;;5.00;5.00;;;;;17.15;56.29;101999.75;5068415;27;45477;-69
2022/07/06 03:47:29;;;;;;;;;6.33;6.33;;;;;17.38;56.21;102036.00;5075885;27;45564;-62
2022/07/06 03:49:54;;;;;;;;;6.00;6.00;;;;;17.42;56.14;102033.97;5076411;27;45537;-64
2022/07/06 03:52:20;;;;;;;;;7.67;6.33;;;;;17.38;56.07;102044.06;5075908;27;45207;-63
2022/07/06 03:54:45;;;;;;;;;5.33;5.33;;;;;17.33;56.57;102043.50;5075090;27;45533;-69
2022/07/06 03:57:13;;;;;;;;;5.00;5.00;;;;;17.34;56.60;102034.47;5078286;27;45406;-66
2022/07/06 03:59:39;;;;;;;;;6.67;6.67;;;;;17.29;56.50;102034.72;5076181;27;45331;-68
2022/07/06 04:02:04;;;;;;;;;6.00;6.00;;;;;17.34;56.24;102034.47;5079252;27;45447;-66
2022/07/06 04:04:29;;;;;;;;;6.00;6.00;;;;;17.29;56.63;102033.88;5078637;27;45439;-61
2022/07/06 04:06:55;;;;;;;;;5.67;5.00;;;;;17.31;56.55;102043.56;5077045;27;45329;-65
2022/07/06 04:09:20;;;;;;;;;5.33;5.33;;;;;17.32;56.80;102044.47;5075294;27;46035;-65
2022/07/06 04:11:46;;;;;;;;;6.00;5.00;;;;;17.15;56.91;102026.66;5075611;27;45575;-66
2022/07/06 04:14:11;;;;;;;;;6.00;5.00;;;;;17.24;56.53;102042.22;5074972;27;45687;-64
2022/07/06 04:16:36;;;;;;;;;5.67;5.00;;;;;17.24;57.03;102046.75;5077278;27;45517;-65
2022/07/06 04:19:02;;;;;;;;;7.33;7.33;;;;;17.25;56.75;102048.47;5072535;27;45540;-66
2022/07/06 04:21:27;;;;;;;;;6.67;6.67;;;;;17.22;57.08;102054.03;5076149;27;45191;-64
2022/07/06 04:23:53;;;;;;;;;6.33;6.33;;;;;17.21;57.04;102053.19;5075733;27;45346;-67
2022/07/06 04:26:18;;;;;;;;;9.67;8.00;;;;;17.22;56.89;102043.28;5079331;27;45705;-67
2022/07/06 04:28:44;;;;;;;;;6.33;6.33;;;;;17.30;56.73;102041.84;5076431;27;45334;-65
2022/07/06 04:31:09;;;;;;;;;8.00;7.00;;;;;17.29;56.71;102031.19;5077492;27;45354;-65
2022/07/06 04:33:34;;;;;;;;;6.00;6.00;;;;;17.36;56.52;102046.00;5078504;27;45401;-64
2022/07/06 04:36:00;;;;;;;;;7.67;6.00;;;;;17.36;56.63;102046.84;5076217;27;45451;-61
2022/07/06 04:38:25;;;;;;;;;7.00;6.00;;;;;17.33;56.48;102035.44;5074678;27;45444;-63
2022/07/06 04:40:51;;;;;;;;;7.00;7.00;;;;;17.33;56.39;102039.00;5074509;27;45475;-61
2022/07/06 04:43:16;;;;;;;;;6.00;6.00;;;;;17.41;56.34;102046.56;5082570;27;45195;-64
2022/07/06 04:45:42;;;;;;;;;8.33;7.33;;;;;17.34;56.29;102026.41;5072265;27;45642;-65
2022/07/06 04:48:08;;;;;;;;;9.00;8.00;;;;;17.41;56.32;102038.50;5080212;27;45915;-66
2022/07/06 04:50:34;;;;;;;;;7.00;7.00;;;;;17.46;56.29;102047.16;5078571;27;45423;-67
2022/07/06 04:52:59;;;;;;;;;7.67;6.00;;;;;17.46;56.04;102049.00;5074649;27;45362;-66
2022/07/06 04:55:25;;;;;;;;;5.00;5.00;;;;;17.42;56.35;102039.34;5075935;27;45598;-63
2022/07/06 04:57:51;;;;;;;;;8.00;5.00;;;;;17.46;56.41;102052.53;5079420;27;45369;-64
2022/07/06 05:00:17;;;;;;;;;4.33;4.33;;;;;17.48;56.18;102056.00;5072725;27;45578;-63
2022/07/06 05:02:42;;;;;;;;;8.00;8.00;;;;;17.45;56.18;102056.19;5089833;27;45437;-67
2022/07/06 05:05:09;;;;;;;;;15.00;7.00;;;;;17.50;56.31;102058.59;5068196;27;45456;-69
2022/07/06 05:07:39;;;;;;;;;6.67;6.67;;;;;17.39;56.27;102035.03;5063080;27;45291;-65
2022/07/06 05:10:06;;;;;;;;;7.00;6.00;;;;;17.51;56.42;102050.41;5075448;27;45521;-65
2022/07/06 05:12:31;;;;;;;;;5.33;5.33;;;;;17.54;56.13;102050.22;5074297;27;45468;-68
2022/07/06 05:14:57;;;;;;;;;7.00;7.00;;;;;17.57;56.02;102047.34;5079011;27;45500;-69
2022/07/06 05:17:23;;;;;;;;;12.33;8.33;;;;;17.52;56.04;102035.16;5069725;27;45589;-66
2022/07/06 05:19:48;;;;;;;;;9.00;8.33;;;;;17.48;56.00;102045.25;5070432;27;45418;-67
2022/07/06 05:22:13;;;;;;;;;9.67;9.00;;;;;17.43;56.04;102033.88;5074508;27;45465;-66
2022/07/06 05:24:39;;;;;;;;;13.67;9.33;;;;;17.55;55.93;102048.41;5068450;27;45491;-68
2022/07/06 05:27:04;;;;;;;;;16.00;11.33;;;;;17.55;56.44;102054.66;5074148;27;45929;-71
2022/07/06 05:29:30;;;;;;;;;13.00;9.33;;;;;17.57;56.97;102047.34;5073268;27;45282;-69
2022/07/06 05:31:55;;;;;;;;;9.67;7.33;;;;;17.53;56.72;102048.50;5077327;27;45368;-67
2022/07/06 05:34:20;;;;;;;;;9.00;8.67;;;;;17.55;57.26;102056.47;5076891;27;45310;-66
2022/07/06 05:36:46;;;;;;;;;9.00;9.00;;;;;17.47;56.76;102042.66;5068930;27;46155;-68
2022/07/06 05:39:11;;;;;;;;;13.00;9.33;;;;;17.53;56.67;102059.25;5076308;27;45281;-68
2022/07/06 05:41:37;;;;;;;;;9.00;9.00;;;;;17.50;56.55;102037.06;5079584;27;45219;-65
2022/07/06 05:44:02;;;;;;;;;8.33;8.33;;;;;17.62;56.52;102058.69;5079187;27;45401;-63
2022/07/06 05:46:28;;;;;;;;;9.67;9.67;;;;;17.60;56.74;102055.25;5072687;27;45857;-62
2022/07/06 05:51:37;;;;;;;;;14.33;12.67;;;;;17.73;55.98;102066.13;5077739;27;45416;-65
2022/07/06 05:54:03;;;;;;;;;13.00;9.33;;;;;17.80;56.19;102066.59;5074133;27;45424;-69
2022/07/06 05:56:28;;;;;;;;;13.00;11.67;;;;;17.81;56.24;102071.00;5058446;28;46248;-67
2022/07/06 05:58:53;;;;;;;;;11.33;9.67;;;;;17.83;55.59;102066.41;5078511;27;45424;-65
2022/07/06 06:01:19;;;;;;;;;9.00;8.33;;;;;17.86;56.13;102066.22;5073036;27;45456;-69
2022/07/06 06:03:44;;;;;;;;;8.33;8.00;;;;;17.85;55.82;102076.13;5065397;27;45297;-61
2022/07/06 06:06:10;;;;;;;;;12.33;10.33;;;;;17.85;55.93;102070.75;5078089;27;45911;-64
2022/07/06 06:08:35;;;;;;;;;12.67;12.67;;;;;17.79;55.67;102067.56;5078259;27;45456;-68
2022/07/06 06:11:00;;;;;;;;;14.00;13.67;;;;;17.85;55.93;102073.44;5076975;27;45726;-67
2022/07/06 06:13:26;;;;;;;;;8.00;8.00;;;;;17.90;55.01;102075.81;5059777;27;45540;-62
2022/07/06 06:15:51;;;;;;;;;7.67;7.67;;;;;17.85;55.25;102059.97;5077477;27;45993;-55
2022/07/06 06:18:18;;;;;;;;;10.33;8.00;;;;;17.96;54.16;102086.19;5079837;27;45454;-60
2022/07/06 06:20:44;;;;;;;;;8.00;8.00;;;;;17.94;54.90;102074.66;5075243;27;45382;-58
2022/07/06 06:23:09;;;;;;;;;12.00;12.00;;;;;17.98;55.02;102081.59;5081096;27;45583;-61
2022/07/06 06:25:39;;;;;;;;;15.33;13.00;;;;;17.97;54.93;102079.88;5068431;27;45390;-62
2022/07/06 06:28:06;;;;;;;;;9.00;9.00;;;;;17.98;54.24;102070.84;5077734;27;45798;-62
2022/07/06 06:30:32;;;;;;;;;7.00;6.67;;;;;18.04;54.00;102080.34;5077178;27;45473;-61
2022/07/06 06:33:12;;;;;;;;;13.33;11.33;;;;;18.05;54.01;102080.22;5078250;27;45536;-62
2022/07/06 06:35:43;;;;;;;;;11.67;11.33;;;;;18.12;54.02;102078.91;5080191;27;46397;-62
2022/07/06 06:38:08;;;;;;;;;10.00;9.00;;;;;18.13;54.04;102077.94;5080947;27;45446;-61
2022/07/06 06:40:34;;;;;;;;;10.33;9.00;;;;;18.18;53.35;102077.63;5071332;27;45393;-62
2022/07/06 06:43:05;;;;;;;;;9.00;8.00;;;;;18.17;53.28;102074.06;5088717;27;45386;-60
2022/07/06 06:45:31;;;;;;;;;9.33;9.00;;;;;18.20;52.85;102076.56;5076521;27;45556;-60
2022/07/06 06:47:57;;;;;;;;;14.00;11.50;;;;;18.24;52.69;102080.78;5082179;27;45468;-60
2022/07/06 06:50:23;;;;;;;;;13.67;11.67;;;;;18.30;52.83;102086.75;5078378;27;45224;-62
2022/07/06 06:52:49;;;;;;;;;8.33;8.33;;;;;18.32;52.88;102079.41;5065827;27;45577;-61
2022/07/06 06:55:15;;;;;;;;;14.33;11.00;;;;;18.30;52.85;102066.06;5056158;28;45392;-61
2022/07/06 06:57:40;;;;;;;;;10.00;9.00;;;;;18.36;51.76;102086.31;5069503;27;45421;-60
2022/07/06 07:00:07;;;;;;;;;12.00;12.00;;;;;18.39;51.59;102094.22;5077160;27;45529;-59
2022/07/06 07:02:32;;;;;;;;;7.67;7.00;;;;;18.45;51.39;102085.72;5075555;27;47092;-61
2022/07/06 07:04:58;;;;;;;;;8.00;8.00;;;;;18.51;50.85;102091.59;5065096;27;46198;-61
2022/07/06 07:07:23;;;;;;;;;7.33;4.00;;;;;18.53;50.71;102094.19;5073376;27;45491;-60
2022/07/06 07:09:49;;;;;;;;;10.00;10.00;;;;;18.58;51.54;102092.03;5063177;27;45466;-59
2022/07/06 07:12:16;;;;;;;;;7.67;7.00;;;;;18.63;50.94;102100.72;5070524;28;45587;-61
2022/07/06 07:14:42;;;;;;;;;12.67;9.33;;;;;18.63;51.08;102079.16;5068694;27;46219;-61
2022/07/06 07:17:08;;;;;;;;;6.00;6.00;;;;;18.75;50.12;102089.16;5062609;27;45456;-60
2022/07/06 07:19:33;;;;;;;;;9.67;7.33;;;;;18.79;50.03;102092.50;5065666;27;45323;-62
2022/07/06 07:21:59;;;;;;;;;8.00;7.33;;;;;18.82;49.92;102085.06;5075149;28;45745;-60
2022/07/06 07:24:24;;;;;;;;;8.67;8.67;;;;;18.88;50.31;102094.59;5076429;27;46150;-60
2022/07/06 07:26:50;;;;;;;;;7.00;7.00;;;;;18.91;49.73;102090.81;5069499;27;45402;-58
2022/07/06 07:29:15;;;;;;;;;11.67;9.67;;;;;18.93;49.66;102096.97;5068501;27;45516;-58
2022/07/06 07:31:41;;;;;;;;;13.33;7.00;;;;;18.97;49.80;102083.16;5071868;28;45377;-59
2022/07/06 07:34:06;;;;;;;;;10.33;7.00;;;;;19.06;49.61;102093.31;5068745;27;45499;-61
2022/07/06 07:36:32;;;;;;;;;10.00;9.00;;;;;19.09;49.41;102070.69;5074652;27;45468;-60
2022/07/06 07:38:57;;;;;;;;;8.33;8.33;;;;;19.21;49.07;102091.41;5073719;27;45255;-60
2022/07/06 07:41:22;;;;;;;;;8.00;8.00;;;;;19.17;48.54;102079.13;5074940;27;45544;-59
2022/07/06 07:43:48;;;;;;;;;7.67;7.67;;;;;19.20;48.52;102067.25;5070824;27;46173;-62
2022/07/06 07:46:14;;;;;;;;;13.33;7.00;;;;;19.25;48.71;102076.72;5069661;27;45480;-64
2022/07/06 07:48:39;;;;;;;;;8.00;8.00;;;;;19.27;47.76;102080.22;5075828;27;45520;-58
2022/07/06 07:51:04;;;;;;;;;9.33;8.67;;;;;19.26;47.67;102070.38;5074299;27;45965;-60
2022/07/06 07:53:30;;;;;;;;;7.33;7.33;;;;;19.30;47.79;102074.59;5070709;27;46248;-60
2022/07/06 07:55:55;;;;;;;;;10.33;8.33;;;;;19.39;48.17;102079.34;5069172;28;45494;-60
2022/07/06 07:58:20;;;;;;;;;8.67;7.00;;;;;19.48;48.00;102087.78;5065447;27;45503;-60
2022/07/06 08:00:46;;;;;;;;;7.67;7.67;;;;;19.44;48.17;102062.84;5080753;27;45325;-59
2022/07/06 08:03:12;;;;;;;;;6.00;5.00;;;;;19.63;48.08;102084.03;5075162;27;45518;-58
2022/07/06 08:05:38;;;;;;;;;8.67;7.00;;;;;19.69;47.98;102070.13;5067881;27;45825;-58
2022/07/06 08:08:04;;;;;;;;;6.33;6.33;;;;;19.71;46.84;102057.38;5071542;27;45259;-62
2022/07/06 08:10:29;;;;;;;;;8.33;8.33;;;;;19.81;47.40;102074.66;5072661;27;45519;-62
2022/07/06 08:12:55;;;;;;;;;8.33;8.33;;;;;19.86;47.86;102072.47;5073085;27;45496;-63
2022/07/06 08:15:20;;;;;;;;;8.00;6.67;;;;;19.94;47.72;102069.22;5076966;27;45303;-61
2022/07/06 08:17:46;;;;;;;;;9.67;9.33;;;;;20.02;47.20;102072.22;5069045;27;46063;-59
2022/07/06 08:20:12;;;;;;;;;15.00;8.00;;;;;20.07;46.75;102075.47;5066131;28;45258;-61
2022/07/06 08:22:37;;;;;;;;;8.00;7.00;;;;;20.10;46.19;102068.97;5075455;27;46173;-61
2022/07/06 08:25:05;;;;;;;;;11.67;9.00;;;;;20.11;46.45;102070.69;5060840;27;45552;-61
2022/07/06 08:27:30;;;;;;;;;15.00;13.33;;;;;20.18;46.22;102078.25;5057722;28;45396;-61
2022/07/06 08:29:56;;;;;;;;;11.00;9.67;;;;;20.37;46.95;102085.84;5061970;27;45448;-65
2022/07/06 08:32:21;;;;;;;;;6.00;6.00;;;;;20.77;45.11;102085.63;5076836;27;45781;-62
2022/07/06 08:34:47;;;;;;;;;10.00;8.00;;;;;21.26;44.71;102065.69;5075251;27;45366;-67
2022/07/06 08:37:13;;;;;;;;;7.00;7.00;;;;;21.67;43.13;102060.56;5076746;27;45290;-65
2022/07/06 08:39:38;;;;;;;;;7.67;6.33;;;;;22.22;43.56;102066.09;5075066;28;45552;-64
2022/07/06 08:42:05;;;;;;;;;10.00;8.00;;;;;22.77;42.47;102062.38;5076636;27;46209;-62
2022/07/06 08:44:30;;;;;;;;;7.00;7.00;;;;;23.34;41.89;102068.41;5076447;27;45280;-65
2022/07/06 08:47:02;;;;;;;;;7.33;7.33;;;;;23.96;40.15;102065.63;5075374;27;45365;-65
2022/07/06 08:49:28;;;;;;;;;9.75;6.75;;;;;24.48;40.30;102063.66;5069304;27;45709;-60
2022/07/06 08:51:54;;;;;;;;;7.75;5.75;;;;;25.04;40.55;102062.13;5054542;28;46389;-63
2022/07/06 08:54:22;;;;;;;;;8.25;5.75;;;;;25.51;36.74;102049.41;5075894;27;45532;-66
2022/07/06 08:56:48;;;;;;;;;8.00;7.00;;;;;25.66;37.35;102050.69;5076124;27;45933;-66
2022/07/06 08:59:14;;;;;;;;;5.50;5.50;;;;;26.09;35.32;102051.94;5072244;28;46043;-69
2022/07/06 09:01:39;;;;;;;;;5.00;3.75;;;;;26.38;35.15;102043.63;5072259;28;45584;-66
2022/07/06 09:04:07;;;;;;;;;6.50;6.50;;;;;26.78;34.53;102029.50;5075009;28;45922;-66
2022/07/06 09:06:34;;;;;;;;;5.50;4.75;;;;;27.07;34.87;102032.00;5078163;28;45439;-66
2022/07/06 09:09:06;;;;;;;;;6.25;6.25;;;;;27.57;35.33;102034.91;5078219;28;45453;-64
2022/07/06 09:11:31;;;;;;;;;4.40;4.40;;;;;27.93;31.96;102034.78;5078002;27;45591;-60
2022/07/06 09:13:57;;;;;;;;;8.00;6.00;;;;;28.27;34.03;102040.25;5079140;27;45518;-64
2022/07/06 09:16:28;;;;;;;;;5.00;5.00;;;;;28.58;33.40;102039.59;5072252;28;45452;-61
2022/07/06 09:18:54;;;;;;;;;4.00;4.00;;;;;28.57;33.34;102041.50;5077354;28;45923;-64
2022/07/06 09:21:31;;;;;;;;;4.75;4.50;;;;;28.74;32.92;102034.13;5077499;27;45631;-62
2022/07/06 09:23:59;;;;;;;;;7.00;5.00;;;;;28.69;29.45;102031.94;5066150;28;45610;-65
2022/07/06 09:26:26;;;;;;;;;8.00;6.00;;;;;28.58;31.61;102024.03;5077590;27;45414;-65
2022/07/06 09:28:52;;;;;;;;;7.00;5.00;;;;;28.43;29.82;102033.94;5071940;28;45281;-64
2022/07/06 09:31:17;;;;;;;;;7.25;5.75;;;;;28.12;31.07;102020.81;5073030;28;46209;-64
2022/07/06 09:34:05;;;;;;;;;5.50;5.00;;;;;28.05;30.55;102030.72;5074759;27;45366;-66
2022/07/06 09:36:47;;;;;;;;;8.00;5.60;;;;;27.97;30.64;102036.16;5074478;27;45543;-65
2022/07/06 09:39:27;;;;;;;;;4.80;4.80;;;;;27.83;31.79;102039.50;5067063;27;45342;-65
2022/07/06 09:41:57;;;;;;;;;6.40;5.80;;;;;28.24;32.29;102034.19;5072619;28;45654;-64
2022/07/06 09:44:28;;;;;;;;;7.40;6.20;;;;;28.40;29.44;102034.28;5070078;27;45540;-62
2022/07/06 09:46:57;;;;;;;;;5.80;5.80;;;;;28.76;31.44;102027.47;5069819;28;45456;-66
2022/07/06 09:49:24;;;;;;;;;4.40;4.40;;;;;29.30;29.02;102018.75;5078229;27;45368;-67
2022/07/06 09:51:52;;;;;;;;;5.20;5.20;;;;;29.56;29.00;102016.66;5077632;27;45363;-65
2022/07/06 09:54:18;;;;;;;;;4.80;4.80;;;;;29.62;29.48;102018.69;5072573;27;45456;-64
2022/07/06 09:56:50;;;;;;;;;5.25;5.00;;;;;29.66;28.30;102024.66;5078157;27;45253;-62
2022/07/06 09:59:16;;;;;;;;;5.00;5.00;;;;;29.84;28.87;102022.56;5077999;27;45461;-64
2022/07/06 10:01:43;;;;;;;;;4.00;4.00;;;;;29.80;27.12;102021.19;5078376;27;46051;-64
2022/07/06 10:04:12;;;;;;;;;4.60;3.60;;;;;29.81;28.41;102033.84;5077144;28;45352;-62
2022/07/06 10:06:38;;;;;;;;;6.00;6.00;;;;;30.27;28.39;102022.19;5074914;28;45262;-61
2022/07/06 10:09:09;;;;;;;;;4.00;4.00;;;;;30.77;27.18;102018.97;5058247;28;45551;-61
2022/07/06 10:11:38;;;;;;;;;4.00;3.20;;;;;31.15;27.33;102021.72;5058335;28;46075;-58
2022/07/06 10:14:05;;;;;;;;;5.20;3.00;;;;;31.47;26.68;102017.78;5074689;28;45504;-58
2022/07/06 10:16:31;;;;;;;;;5.00;5.00;;;;;31.25;26.11;102000.31;5077742;27;45480;-61
2022/07/06 10:18:58;;;;;;;;;3.50;3.50;;;;;30.92;27.37;102011.63;5060325;28;45705;-61
2022/07/06 10:21:24;;;;;;;;;3.20;3.20;;;;;30.87;26.61;102010.47;5077429;28;45718;-64
2022/07/06 10:23:50;;;;;;;;;5.00;5.00;;;;;31.01;26.36;102015.16;5074622;27;45650;-64
2022/07/06 10:26:18;;;;;;;;;7.20;6.20;;;;;31.20;29.21;102017.38;5057784;28;45350;-58
2022/07/06 10:28:46;;;;;;;;;4.80;4.80;;;;;31.02;26.61;102017.72;5072670;28;45360;-61
2022/07/06 10:31:13;;;;;;;;;4.00;4.00;;;;;30.29;26.81;102020.97;5070901;27;45477;-59
2022/07/06 10:33:39;;;;;;;;;6.80;6.80;;;;;29.95;27.85;102011.19;5072254;28;45401;-61
2022/07/06 10:36:05;;;;;;;;;4.40;4.40;;;;;29.82;28.17;102008.16;5072843;27;45254;-61
2022/07/06 10:38:32;;;;;;;;;4.80;4.80;;;;;29.82;28.30;102012.78;5062521;28;45324;-62
2022/07/06 10:41:06;;;;;;;;;3.60;2.60;;;;;29.28;28.57;102021.63;5069710;27;45278;-62
2022/07/06 10:43:36;;;;;;;;;3.00;2.80;;;;;28.42;29.81;102035.81;5073858;27;45418;-63
2022/07/06 10:46:13;;;;;;;;;5.60;5.40;;;;;28.32;30.08;102026.03;5066260;28;45510;-63
2022/07/06 10:48:41;;;;;;;;;3.60;3.60;;;;;28.27;30.32;102026.56;5076152;27;45593;-58
2022/07/06 10:51:08;;;;;;;;;5.00;3.60;;;;;28.20;30.97;102020.84;5090653;27;46112;-59
2022/07/06 10:53:37;;;;;;;;;4.20;4.00;;;;;28.24;31.19;102024.09;5069250;27;45403;-60
2022/07/06 10:56:08;;;;;;;;;4.60;4.60;;;;;28.09;30.38;102012.94;5070597;27;45395;-62
2022/07/06 10:58:48;;;;;;;;;6.00;6.00;;;;;27.98;30.66;102024.19;5069331;28;45451;-62
2022/07/06 11:01:15;;;;;;;;;5.40;5.40;;;;;27.75;31.08;102023.94;5068940;28;45488;-60
2022/07/06 11:03:49;;;;;;;;;6.00;6.00;;;;;27.57;31.19;102017.66;5073400;28;45568;-63
2022/07/06 11:06:22;;;;;;;;;7.40;7.20;;;;;27.44;31.92;102017.22;5077399;27;45173;-63
2022/07/06 11:08:59;;;;;;;;;5.50;5.50;;;;;27.13;32.23;102014.13;5062808;28;45500;-65
2022/07/06 11:11:25;;;;;;;;;9.75;4.25;;;;;26.90;32.41;102017.34;5071424;27;46875;-57
2022/07/06 11:13:55;;;;;;;;;5.40;5.40;;;;;26.53;33.02;101995.69;5071513;27;45477;-54
2022/07/06 11:16:25;;;;;;;;;10.00;8.00;;;;;26.58;33.06;102008.88;5075334;27;45414;-56
2022/07/06 11:19:09;;;;;;;;;10.50;8.25;;;;;26.56;33.56;102008.16;5075829;27;45510;-55
2022/07/06 11:21:43;;;;;;;;;7.75;7.25;;;;;26.56;33.47;101994.50;5077022;27;45246;-56
2022/07/06 11:24:20;;;;;;;;;7.00;7.00;;;;;26.66;32.74;102000.75;5067556;28;45370;-56